createdAt,value
2017-09-24T00:02:02.185Z,54.70
2017-09-24T00:04:31.047Z,54.90
2017-09-24T00:06:59.156Z,54.80
2017-09-24T00:09:28.008Z,55.10
2017-09-24T00:11:56.099Z,55.10
2017-09-24T00:14:24.178Z,55.20
2017-09-24T00:16:52.266Z,54.50
2017-09-24T00:19:20.367Z,53.50
2017-09-24T00:21:48.460Z,53.10
2017-09-24T00:24:16.556Z,53.20
2017-09-24T00:26:44.648Z,53.30
2017-09-24T00:29:13.500Z,53.20
2017-09-24T00:31:41.629Z,53.10
2017-09-24T00:34:09.715Z,53.50
2017-09-24T00:36:37.810Z,53.30
2017-09-24T00:39:05.903Z,53.40
2017-09-24T00:41:34.003Z,53.80
2017-09-24T00:44:02.848Z,54.40
2017-09-24T00:46:30.961Z,54.40
2017-09-24T00:48:59.815Z,54.20
2017-09-24T00:51:27.907Z,54.10
2017-09-24T00:53:56.000Z,54.10
2017-09-24T00:56:24.859Z,54.10
2017-09-24T00:58:52.944Z,54.00
2017-09-24T01:01:21.040Z,54.00
2017-09-24T01:03:49.911Z,54.00
2017-09-24T01:06:18.012Z,54.00
2017-09-24T01:08:46.860Z,54.10
2017-09-24T01:11:14.969Z,54.10
2017-09-24T01:13:43.819Z,54.50
2017-09-24T01:16:11.901Z,54.50
2017-09-24T01:18:39.990Z,54.60
2017-09-24T01:21:08.076Z,54.60
2017-09-24T01:23:36.927Z,55.00
2017-09-24T01:26:05.009Z,54.90
2017-09-24T01:28:33.099Z,54.80
2017-09-24T01:31:01.181Z,54.60
2017-09-24T01:33:30.096Z,54.50
2017-09-24T01:35:58.934Z,54.40
2017-09-24T01:38:27.019Z,54.40
2017-09-24T01:40:55.116Z,54.60
2017-09-24T01:43:23.983Z,54.70
2017-09-24T01:45:52.065Z,54.60
2017-09-24T01:48:20.156Z,55.60
2017-09-24T01:50:49.023Z,55.00
2017-09-24T01:53:17.104Z,55.00
2017-09-24T01:55:45.187Z,55.30
2017-09-24T01:58:14.057Z,56.30
2017-09-24T02:00:42.140Z,55.50
2017-09-24T02:03:10.231Z,55.50
2017-09-24T02:05:39.092Z,55.60
2017-09-24T02:08:07.178Z,55.50
2017-09-24T02:10:35.256Z,55.50
2017-09-24T02:13:04.120Z,55.80
2017-09-24T02:15:32.204Z,55.70
2017-09-24T02:18:00.292Z,55.90
2017-09-24T02:20:29.150Z,56.30
2017-09-24T02:22:57.234Z,56.30
2017-09-24T02:25:25.320Z,56.20
2017-09-24T02:27:53.399Z,56.40
2017-09-24T02:30:22.259Z,56.60
2017-09-24T02:32:50.360Z,56.50
2017-09-24T02:35:18.446Z,56.20
2017-09-24T02:37:47.312Z,56.30
2017-09-24T02:40:15.405Z,56.20
2017-09-24T02:42:44.272Z,56.20
2017-09-24T02:45:12.361Z,56.20
2017-09-24T02:47:40.440Z,55.70
2017-09-24T02:50:09.290Z,56.00
2017-09-24T02:52:37.408Z,56.00
2017-09-24T02:55:06.276Z,56.80
2017-09-24T02:57:34.367Z,56.80
2017-09-24T03:00:03.227Z,57.40
2017-09-24T03:02:31.490Z,57.40
2017-09-24T03:04:59.572Z,57.80
2017-09-24T03:07:27.683Z,57.40
2017-09-24T03:09:56.524Z,57.90
2017-09-24T03:12:24.623Z,57.70
2017-09-24T03:14:52.709Z,58.20
2017-09-24T03:17:20.796Z,58.10
2017-09-24T03:19:49.649Z,57.60
2017-09-24T03:22:17.735Z,57.50
2017-09-24T03:24:45.925Z,57.60
2017-09-24T03:27:14.784Z,58.80
2017-09-24T03:29:42.874Z,58.00
2017-09-24T03:32:10.960Z,58.60
2017-09-24T03:34:39.053Z,58.40
2017-09-24T03:37:07.907Z,58.40
2017-09-24T03:39:35.997Z,58.40
2017-09-24T03:42:04.088Z,58.60
2017-09-24T03:44:33.077Z,58.80
2017-09-24T03:47:01.940Z,59.30
2017-09-24T03:49:30.049Z,59.00
2017-09-24T03:51:58.917Z,58.40
2017-09-24T03:54:27.015Z,58.40
2017-09-24T03:56:55.877Z,58.10
2017-09-24T03:59:23.946Z,58.20
2017-09-24T04:01:52.028Z,57.90
2017-09-24T04:04:20.124Z,57.70
2017-09-24T04:06:48.221Z,57.70
2017-09-24T04:09:16.305Z,57.70
2017-09-24T04:11:44.411Z,57.70
2017-09-24T04:14:13.300Z,57.80
2017-09-24T04:16:41.384Z,57.70
2017-09-24T04:19:09.472Z,58.50
2017-09-24T04:21:38.333Z,58.90
2017-09-24T04:24:06.420Z,58.80
2017-09-24T04:26:34.499Z,58.40
2017-09-24T04:29:03.370Z,59.00
2017-09-24T04:31:31.471Z,59.00
2017-09-24T04:34:00.323Z,58.90
2017-09-24T04:36:28.418Z,58.90
2017-09-24T04:38:56.501Z,59.30
2017-09-24T04:41:25.351Z,59.40
2017-09-24T04:43:53.439Z,59.40
2017-09-24T04:46:21.516Z,59.00
2017-09-24T04:48:49.620Z,59.20
2017-09-24T04:51:18.464Z,58.80
2017-09-24T04:53:46.547Z,58.80
2017-09-24T04:56:14.633Z,58.80
2017-09-24T04:58:42.712Z,59.30
2017-09-24T05:01:10.788Z,59.70
2017-09-24T05:03:39.651Z,59.50
2017-09-24T05:06:07.740Z,59.40
2017-09-24T05:08:35.828Z,59.70
2017-09-24T05:11:04.680Z,59.40
2017-09-24T05:13:32.768Z,59.40
2017-09-24T05:16:00.868Z,59.10
2017-09-24T05:18:29.720Z,59.90
2017-09-24T05:20:57.823Z,59.90
2017-09-24T05:23:26.688Z,60.20
2017-09-24T05:25:54.768Z,59.60
2017-09-24T05:28:22.851Z,60.30
2017-09-24T05:30:50.939Z,59.90
2017-09-24T05:33:19.787Z,59.80
2017-09-24T05:35:47.893Z,59.70
2017-09-24T05:38:15.976Z,59.60
2017-09-24T05:40:44.822Z,59.10
2017-09-24T05:43:12.915Z,59.00
2017-09-24T05:45:41.001Z,59.20
2017-09-24T05:48:09.859Z,59.90
2017-09-24T05:50:37.962Z,59.80
2017-09-24T05:53:06.044Z,59.20
2017-09-24T05:55:34.891Z,59.00
2017-09-24T05:58:02.978Z,58.90
2017-09-24T06:00:31.068Z,58.70
2017-09-24T06:02:59.153Z,58.70
2017-09-24T06:05:28.004Z,58.90
2017-09-24T06:07:56.097Z,58.90
2017-09-24T06:10:24.176Z,58.70
2017-09-24T06:12:52.264Z,58.70
2017-09-24T06:15:21.113Z,59.00
2017-09-24T06:17:49.200Z,58.90
2017-09-24T06:20:17.275Z,58.80
2017-09-24T06:22:45.360Z,58.90
2017-09-24T06:25:13.447Z,58.80
2017-09-24T06:27:42.299Z,58.30
2017-09-24T06:30:10.372Z,58.30
2017-09-24T06:32:38.457Z,58.30
2017-09-24T06:35:06.528Z,58.40
2017-09-24T06:37:34.612Z,59.00
2017-09-24T06:40:02.701Z,58.90
2017-09-24T06:42:31.553Z,59.10
2017-09-24T06:44:59.630Z,58.90
2017-09-24T06:47:27.708Z,59.10
2017-09-24T06:49:55.796Z,58.80
2017-09-24T06:52:23.875Z,58.70
2017-09-24T06:54:52.729Z,58.30
2017-09-24T06:57:20.805Z,58.30
2017-09-24T06:59:48.887Z,58.20
2017-09-24T07:02:16.965Z,58.50
2017-09-24T07:04:45.053Z,59.20
2017-09-24T07:07:13.904Z,59.10
2017-09-24T07:09:41.997Z,59.00
2017-09-24T07:12:10.071Z,59.20
2017-09-24T07:14:38.152Z,58.20
2017-09-24T07:17:06.236Z,57.80
2017-09-24T07:19:35.149Z,57.50
2017-09-24T07:22:03.233Z,57.50
2017-09-24T07:24:31.319Z,57.10
2017-09-24T07:26:59.402Z,57.00
2017-09-24T07:29:27.487Z,56.80
2017-09-24T07:31:55.584Z,56.70
2017-09-24T07:34:23.676Z,56.80
2017-09-24T07:36:52.528Z,56.90
2017-09-24T07:39:20.625Z,56.90
2017-09-24T07:41:49.480Z,57.60
2017-09-24T07:44:18.011Z,57.00
2017-09-24T07:46:46.861Z,56.20
2017-09-24T07:49:14.960Z,56.10
2017-09-24T07:51:43.064Z,56.00
2017-09-24T07:54:11.175Z,55.90
2017-09-24T07:56:39.266Z,55.30
2017-09-24T07:59:07.358Z,55.20
2017-09-24T08:01:36.245Z,54.40
2017-09-24T08:04:05.106Z,53.60
2017-09-24T08:06:33.190Z,53.60
2017-09-24T08:09:01.314Z,53.40
2017-09-24T08:11:29.405Z,52.70
2017-09-24T08:13:57.785Z,52.00
2017-09-24T08:16:25.863Z,51.70
2017-09-24T08:18:53.951Z,51.70
2017-09-24T08:21:22.054Z,51.70
2017-09-24T08:23:50.928Z,51.90
2017-09-24T08:26:19.018Z,51.80
2017-09-24T08:28:47.120Z,51.90
2017-09-24T08:31:15.205Z,52.00
2017-09-24T08:33:43.295Z,51.20
2017-09-24T08:36:11.375Z,51.80
2017-09-24T08:38:39.464Z,50.40
2017-09-24T08:41:07.547Z,49.90
2017-09-24T08:43:35.619Z,49.00
2017-09-24T08:46:03.693Z,47.50
2017-09-24T08:48:31.780Z,47.70
2017-09-24T08:51:00.633Z,47.10
2017-09-24T08:53:28.708Z,47.70
2017-09-24T08:55:56.796Z,46.60
2017-09-24T08:58:24.867Z,46.30
2017-09-24T09:00:52.954Z,46.10
2017-09-24T09:03:21.032Z,45.40
2017-09-24T09:05:49.884Z,43.30
2017-09-24T09:08:17.959Z,43.20
2017-09-24T09:10:46.048Z,44.10
2017-09-24T09:13:14.150Z,44.30
2017-09-24T09:15:43.016Z,41.60
2017-09-24T09:18:11.095Z,41.50
2017-09-24T09:20:39.177Z,38.20
2017-09-24T09:23:08.020Z,40.70
2017-09-24T09:25:36.119Z,40.50
2017-09-24T09:28:04.191Z,40.30
2017-09-24T09:30:32.275Z,40.30
2017-09-24T09:33:18.156Z,37.80
2017-09-24T09:35:46.234Z,37.00
2017-09-24T09:38:14.307Z,37.70
2017-09-24T09:40:42.680Z,35.80
2017-09-24T09:43:10.752Z,35.80
2017-09-24T09:45:59.771Z,33.50
2017-09-24T09:48:27.851Z,35.90
2017-09-24T09:50:55.942Z,33.30
2017-09-24T09:53:24.036Z,33.80
2017-09-24T09:55:52.115Z,34.00
2017-09-24T09:58:20.188Z,30.60
2017-09-24T10:00:48.270Z,30.50
2017-09-24T10:03:17.128Z,29.90
2017-09-24T10:05:45.208Z,29.80
2017-09-24T10:08:31.076Z,29.40
2017-09-24T10:10:59.161Z,30.00
2017-09-24T10:13:27.235Z,28.60
2017-09-24T10:15:55.299Z,28.00
2017-09-24T10:18:23.467Z,27.90
2017-09-24T10:20:51.549Z,28.00
2017-09-24T10:23:19.623Z,27.10
2017-09-24T10:25:47.706Z,26.50
2017-09-24T10:28:33.704Z,26.50
2017-09-24T10:31:01.785Z,27.30
2017-09-24T10:33:29.864Z,26.50
2017-09-24T10:35:57.937Z,26.70
2017-09-24T10:38:26.795Z,27.20
2017-09-24T10:40:54.873Z,27.10
2017-09-24T10:43:22.940Z,26.40
2017-09-24T10:45:51.039Z,26.50
2017-09-24T10:48:19.188Z,27.30
2017-09-24T10:50:47.264Z,28.50
2017-09-24T10:53:15.346Z,26.90
2017-09-24T10:55:43.415Z,25.90
2017-09-24T10:58:11.497Z,25.60
2017-09-24T11:00:39.563Z,24.90
2017-09-24T11:03:07.647Z,25.60
2017-09-24T11:05:35.709Z,25.00
2017-09-24T11:08:03.784Z,26.40
2017-09-24T11:10:31.856Z,24.50
2017-09-24T11:12:59.940Z,24.50
2017-09-24T11:15:28.016Z,24.50
2017-09-24T11:17:56.092Z,24.80
2017-09-24T11:20:24.927Z,22.70
2017-09-24T11:22:53.003Z,22.70
2017-09-24T11:25:21.067Z,23.00
2017-09-24T11:27:49.170Z,23.10
2017-09-24T11:30:17.241Z,23.20
2017-09-24T11:32:45.343Z,23.50
2017-09-24T11:35:13.409Z,23.30
2017-09-24T11:37:41.487Z,23.50
2017-09-24T11:40:09.585Z,23.40
2017-09-24T11:42:37.642Z,23.60
2017-09-24T11:45:06.480Z,23.70
2017-09-24T11:47:35.327Z,24.60
2017-09-24T11:50:04.160Z,23.90
2017-09-24T11:52:32.241Z,23.90
2017-09-24T11:55:00.316Z,24.50
2017-09-24T11:57:28.556Z,24.50
2017-09-24T11:59:56.642Z,24.50
2017-09-24T12:02:24.728Z,25.00
2017-09-24T12:04:53.599Z,25.00
2017-09-24T12:07:21.704Z,25.00
2017-09-24T12:09:49.784Z,25.30
2017-09-24T12:12:17.879Z,25.40
2017-09-24T12:14:45.948Z,25.10
2017-09-24T12:17:14.031Z,25.60
2017-09-24T12:19:42.865Z,24.90
2017-09-24T12:22:10.948Z,24.90
2017-09-24T12:24:39.006Z,25.20
2017-09-24T12:27:07.092Z,24.60
2017-09-24T12:29:35.166Z,24.50
2017-09-24T12:32:03.247Z,22.90
2017-09-24T12:34:31.319Z,20.60
2017-09-24T12:36:59.400Z,20.90
2017-09-24T12:39:27.463Z,23.30
2017-09-24T12:41:55.539Z,22.70
2017-09-24T12:44:23.603Z,21.60
2017-09-24T12:46:51.696Z,21.50
2017-09-24T12:49:19.780Z,21.70
2017-09-24T12:51:47.863Z,20.30
2017-09-24T12:54:16.703Z,20.20
2017-09-24T12:56:44.803Z,19.60
2017-09-24T12:59:12.879Z,18.20
2017-09-24T13:01:40.951Z,18.50
2017-09-24T13:04:09.032Z,16.50
2017-09-24T13:06:37.096Z,16.40
2017-09-24T13:09:05.180Z,16.80
2017-09-24T13:11:33.252Z,16.50
2017-09-24T13:14:01.324Z,16.70
2017-09-24T13:16:29.395Z,15.90
2017-09-24T13:18:57.495Z,16.00
2017-09-24T13:21:26.320Z,13.60
2017-09-24T13:23:55.155Z,13.70
2017-09-24T13:26:23.231Z,13.70
2017-09-24T13:28:52.083Z,12.40
2017-09-24T13:31:20.164Z,12.40
2017-09-24T13:33:48.247Z,12.70
2017-09-24T13:36:16.321Z,12.40
2017-09-24T13:38:44.423Z,13.00
2017-09-24T13:41:13.277Z,12.70
2017-09-24T13:43:41.370Z,12.60
2017-09-24T13:46:09.444Z,12.80
2017-09-24T13:48:37.539Z,12.60
2017-09-24T13:51:06.376Z,13.10
2017-09-24T13:53:34.455Z,13.10
2017-09-24T13:56:02.524Z,12.80
2017-09-24T13:58:30.594Z,13.90
2017-09-24T14:00:58.691Z,13.70
2017-09-24T14:03:26.788Z,14.10
2017-09-24T14:05:55.632Z,14.10
2017-09-24T14:08:23.738Z,14.20
2017-09-24T14:10:52.579Z,15.60
2017-09-24T14:13:21.433Z,16.50
2017-09-24T14:15:50.276Z,16.60
2017-09-24T14:18:18.359Z,16.60
2017-09-24T14:20:46.431Z,16.80
2017-09-24T14:23:14.516Z,17.30
2017-09-24T14:25:42.574Z,17.70
2017-09-24T14:28:10.661Z,17.90
2017-09-24T14:30:38.762Z,17.90
2017-09-24T14:33:07.619Z,18.30
2017-09-24T14:35:35.692Z,18.20
2017-09-24T14:38:03.775Z,17.80
2017-09-24T14:40:31.844Z,18.10
2017-09-24T14:42:59.915Z,17.90
2017-09-24T14:45:27.997Z,18.60
2017-09-24T14:47:56.071Z,19.40
2017-09-24T14:50:24.904Z,20.70
2017-09-24T14:52:52.991Z,20.70
2017-09-24T14:55:21.051Z,21.30
2017-09-24T14:57:49.133Z,21.50
2017-09-24T15:00:17.195Z,21.40
2017-09-24T15:02:48.244Z,21.50
2017-09-24T15:05:16.355Z,21.40
2017-09-24T15:07:44.436Z,21.50
2017-09-24T15:10:12.524Z,22.00
2017-09-24T15:12:41.369Z,22.70
2017-09-24T15:15:09.451Z,22.60
2017-09-24T15:17:37.524Z,23.30
2017-09-24T15:20:05.608Z,23.80
2017-09-24T15:22:33.754Z,24.50
2017-09-24T15:25:01.832Z,25.10
2017-09-24T15:27:29.910Z,25.40
2017-09-24T15:29:58.003Z,26.30
2017-09-24T15:32:26.077Z,26.60
2017-09-24T15:34:54.161Z,27.10
2017-09-24T15:37:23.009Z,27.80
2017-09-24T15:39:51.102Z,27.70
2017-09-24T15:42:19.182Z,28.10
2017-09-24T15:44:47.291Z,28.30
2017-09-24T15:47:15.496Z,28.70
2017-09-24T15:49:43.585Z,28.70
2017-09-24T15:52:11.652Z,28.70
2017-09-24T15:54:40.132Z,28.60
2017-09-24T15:57:08.202Z,28.70
2017-09-24T15:59:36.288Z,28.70
2017-09-24T16:02:04.342Z,28.60
2017-09-24T16:04:32.429Z,29.00
2017-09-24T16:07:00.502Z,29.50
2017-09-24T16:09:28.587Z,29.80
2017-09-24T16:11:56.663Z,30.00
2017-09-24T16:14:24.745Z,30.20
2017-09-24T16:16:52.833Z,30.50
2017-09-24T16:19:21.681Z,30.40
2017-09-24T16:21:49.768Z,30.30
2017-09-24T16:24:17.861Z,31.60
2017-09-24T16:26:46.716Z,31.40
2017-09-24T16:29:14.803Z,31.20
2017-09-24T16:31:42.882Z,30.70
2017-09-24T16:34:10.967Z,30.70
2017-09-24T16:36:39.813Z,30.20
2017-09-24T16:39:07.890Z,30.20
2017-09-24T16:41:35.960Z,30.40
2017-09-24T16:44:04.035Z,30.40
2017-09-24T16:46:32.110Z,30.40
2017-09-24T16:49:00.191Z,30.20
2017-09-24T16:51:28.261Z,30.30
2017-09-24T16:53:56.339Z,30.80
2017-09-24T16:56:24.412Z,30.60
2017-09-24T16:58:52.496Z,30.90
2017-09-24T17:01:20.569Z,30.90
2017-09-24T17:03:48.651Z,30.90
2017-09-24T17:06:17.481Z,31.10
2017-09-24T17:08:45.559Z,31.10
2017-09-24T17:11:13.628Z,31.50
2017-09-24T17:13:41.707Z,31.70
2017-09-24T17:16:09.786Z,32.10
2017-09-24T17:18:38.636Z,32.70
2017-09-24T17:21:07.479Z,32.30
2017-09-24T17:23:35.576Z,32.30
2017-09-24T17:26:03.659Z,32.30
2017-09-24T17:28:32.515Z,32.90
2017-09-24T17:31:00.600Z,32.90
2017-09-24T17:33:28.683Z,34.40
2017-09-24T17:35:56.768Z,32.80
2017-09-24T17:38:25.617Z,34.30
2017-09-24T17:40:53.694Z,34.20
2017-09-24T17:43:21.851Z,33.50
2017-09-24T17:45:49.942Z,33.40
2017-09-24T17:48:18.123Z,33.90
2017-09-24T17:50:46.180Z,34.30
2017-09-24T17:53:14.263Z,34.90
2017-09-24T17:55:42.347Z,34.50
2017-09-24T17:58:10.429Z,34.60
2017-09-24T18:00:38.511Z,35.30
2017-09-24T18:03:06.587Z,35.10
2017-09-24T18:05:34.671Z,35.20
2017-09-24T18:08:03.516Z,35.60
2017-09-24T18:10:31.592Z,35.50
2017-09-24T18:12:59.680Z,35.20
2017-09-24T18:15:27.776Z,35.40
2017-09-24T18:17:56.616Z,35.80
2017-09-24T18:20:24.716Z,35.70
2017-09-24T18:22:52.783Z,35.60
2017-09-24T18:25:20.912Z,35.50
2017-09-24T18:27:49.023Z,35.90
2017-09-24T18:30:17.103Z,36.20
2017-09-24T18:32:45.179Z,36.20
2017-09-24T18:35:14.285Z,36.20
2017-09-24T18:37:42.364Z,36.10
2017-09-24T18:40:10.447Z,36.10
2017-09-24T18:42:39.298Z,37.10
2017-09-24T18:45:07.451Z,37.10
2017-09-24T18:47:35.531Z,37.10
2017-09-24T18:50:04.383Z,37.10
2017-09-24T18:52:33.222Z,37.40
2017-09-24T18:55:01.313Z,37.40
2017-09-24T18:57:29.395Z,37.70
2017-09-24T18:59:58.259Z,38.30
2017-09-24T19:02:26.336Z,38.20
2017-09-24T19:04:54.420Z,38.70
2017-09-24T19:07:22.496Z,38.80
2017-09-24T19:09:50.584Z,38.90
2017-09-24T19:12:19.441Z,40.30
2017-09-24T19:14:47.519Z,40.20
2017-09-24T19:17:15.600Z,40.90
2017-09-24T19:19:43.692Z,41.30
2017-09-24T19:22:12.528Z,42.20
2017-09-24T19:24:40.624Z,41.80
2017-09-24T19:27:08.719Z,41.90
2017-09-24T19:29:36.800Z,41.70
2017-09-24T19:32:05.678Z,42.60
2017-09-24T19:34:33.790Z,42.70
2017-09-24T19:37:01.847Z,42.50
2017-09-24T19:39:30.695Z,42.70
2017-09-24T19:41:58.783Z,42.50
2017-09-24T19:44:26.913Z,42.50
2017-09-24T19:46:54.995Z,42.70
2017-09-24T19:49:23.067Z,43.50
2017-09-24T19:51:51.147Z,43.60
2017-09-24T19:54:19.244Z,43.10
2017-09-24T19:56:47.338Z,44.10
2017-09-24T19:59:16.239Z,44.20
2017-09-24T20:01:45.131Z,44.30
2017-09-24T20:04:13.976Z,44.20
2017-09-24T20:06:42.049Z,44.10
2017-09-24T20:09:10.141Z,44.40
2017-09-24T20:11:38.212Z,44.70
2017-09-24T20:14:06.310Z,44.90
2017-09-24T20:16:35.174Z,45.00
2017-09-24T20:19:03.260Z,45.00
2017-09-24T20:21:31.355Z,45.70
2017-09-24T20:24:00.207Z,46.20
2017-09-24T20:26:28.333Z,46.10
2017-09-24T20:28:56.419Z,46.30
2017-09-24T20:31:24.500Z,46.20
2017-09-24T20:33:52.592Z,46.70
2017-09-24T20:36:20.664Z,46.90
2017-09-24T20:38:48.759Z,47.80
2017-09-24T20:41:16.839Z,48.50
2017-09-24T20:43:44.915Z,48.90
2017-09-24T20:46:13.912Z,48.80
2017-09-24T20:48:41.984Z,48.70
2017-09-24T20:51:10.836Z,48.80
2017-09-24T20:53:39.729Z,49.40
2017-09-24T20:56:07.815Z,49.30
2017-09-24T20:58:35.882Z,49.30
2017-09-24T21:01:03.984Z,49.90
2017-09-24T21:03:32.824Z,51.70
2017-09-24T21:06:00.912Z,51.70
2017-09-24T21:08:29.006Z,51.70
2017-09-24T21:10:57.867Z,52.40
2017-09-24T21:13:25.950Z,51.80
2017-09-24T21:15:54.031Z,50.20
2017-09-24T21:18:22.115Z,50.00
2017-09-24T21:20:50.207Z,50.10
2017-09-24T21:23:19.052Z,51.70
2017-09-24T21:25:47.188Z,51.70
2017-09-24T21:28:15.272Z,51.60
2017-09-24T21:30:43.371Z,52.90
2017-09-24T21:33:11.472Z,51.50
2017-09-24T21:35:39.554Z,51.50
2017-09-24T21:38:08.400Z,52.40
2017-09-24T21:40:36.489Z,52.40
2017-09-24T21:43:04.570Z,52.20
2017-09-24T21:45:32.663Z,52.60
2017-09-24T21:48:01.503Z,52.50
2017-09-24T21:50:29.590Z,52.40
2017-09-24T21:52:57.663Z,52.60
2017-09-24T21:55:25.760Z,53.10
2017-09-24T21:57:53.840Z,53.20
2017-09-24T22:00:21.923Z,52.90
2017-09-24T22:02:50.771Z,53.10
2017-09-24T22:05:18.860Z,53.10
2017-09-24T22:07:46.931Z,53.10
2017-09-24T22:10:16.627Z,53.60
2017-09-24T22:12:44.768Z,53.50
2017-09-24T22:15:12.846Z,53.30
2017-09-24T22:17:40.932Z,53.90
2017-09-24T22:20:09.015Z,53.90
2017-09-24T22:22:37.110Z,53.90
2017-09-24T22:25:05.200Z,54.30
2017-09-24T22:27:33.392Z,54.10
2017-09-24T22:30:02.244Z,54.40
2017-09-24T22:32:30.328Z,54.30
2017-09-24T22:34:58.411Z,54.10
2017-09-24T22:37:27.267Z,53.70
2017-09-24T22:39:55.364Z,53.60
2017-09-24T22:42:23.439Z,53.80
2017-09-24T22:44:51.584Z,55.20
2017-09-24T22:47:19.664Z,54.50
2017-09-24T22:49:47.743Z,54.10
2017-09-24T22:52:15.827Z,54.50
2017-09-24T22:54:43.899Z,54.60
2017-09-24T22:57:11.998Z,55.30
2017-09-24T22:59:40.844Z,56.10
2017-09-24T23:02:08.928Z,56.10
2017-09-24T23:04:37.010Z,56.20
2017-09-24T23:07:05.163Z,56.20
2017-09-24T23:09:33.231Z,55.20
2017-09-24T23:12:01.323Z,55.00
2017-09-24T23:14:29.398Z,56.10
2017-09-24T23:16:57.490Z,57.10
2017-09-24T23:19:26.334Z,56.60
2017-09-24T23:21:54.427Z,56.50
2017-09-24T23:24:22.504Z,55.50
2017-09-24T23:26:50.583Z,54.90
2017-09-24T23:29:18.663Z,55.70
2017-09-24T23:31:47.524Z,57.80
2017-09-24T23:34:15.590Z,57.70
2017-09-24T23:36:43.678Z,57.50
2017-09-24T23:39:11.752Z,56.10
2017-09-24T23:41:39.836Z,55.90
2017-09-24T23:44:07.911Z,56.00
2017-09-24T23:46:35.996Z,55.60
2017-09-24T23:49:04.848Z,56.00
2017-09-24T23:51:32.935Z,56.00
2017-09-24T23:54:01.003Z,55.60
2017-09-24T23:56:29.096Z,55.50
2017-09-24T23:58:57.167Z,55.60
